createdAt,value
2022-08-26T00:01:30.534Z,22.91
2022-08-26T00:03:57.093Z,22.76
2022-08-26T00:06:24.711Z,22.91
2022-08-26T00:08:51.802Z,22.96
2022-08-26T00:11:26.520Z,22.91
2022-08-26T00:13:54.668Z,22.84
2022-08-26T00:16:22.110Z,22.66
2022-08-26T00:18:48.647Z,22.75
2022-08-26T00:21:16.182Z,22.44
2022-08-26T00:23:42.718Z,22.86
2022-08-26T00:26:09.287Z,22.70
2022-08-26T00:28:37.844Z,22.81
2022-08-26T00:31:04.542Z,22.84
2022-08-26T00:33:33.466Z,22.64
2022-08-26T00:36:01.714Z,22.67
2022-08-26T00:38:29.043Z,22.47
2022-08-26T00:40:57.473Z,22.43
2022-08-26T00:43:25.249Z,22.60
2022-08-26T00:45:59.883Z,22.39
2022-08-26T00:48:31.716Z,22.32
2022-08-26T00:51:01.987Z,22.36
2022-08-26T00:53:30.894Z,22.54
2022-08-26T00:56:04.869Z,22.53
2022-08-26T00:58:34.098Z,22.28
2022-08-26T01:01:00.963Z,22.43
2022-08-26T01:03:29.160Z,22.44
2022-08-26T01:05:57.486Z,22.73
2022-08-26T01:08:24.767Z,22.82
2022-08-26T01:10:52.426Z,22.59
2022-08-26T01:13:23.120Z,22.61
2022-08-26T01:15:55.169Z,22.48
2022-08-26T01:18:22.475Z,22.37
2022-08-26T01:21:13.914Z,22.43
2022-08-26T01:23:45.021Z,22.47
2022-08-26T01:26:50.325Z,22.29
2022-08-26T01:29:19.144Z,22.39
2022-08-26T01:31:50.036Z,22.34
2022-08-26T01:34:25.338Z,22.18
2022-08-26T01:37:01.950Z,22.44
2022-08-26T01:39:29.188Z,22.39
2022-08-26T01:41:57.028Z,22.38
2022-08-26T01:44:26.289Z,22.37
2022-08-26T01:46:53.361Z,22.39
2022-08-26T01:49:21.009Z,22.37
2022-08-26T01:51:49.776Z,22.32
2022-08-26T01:54:16.888Z,22.15
2022-08-26T01:56:47.734Z,22.26
2022-08-26T01:59:17.035Z,22.27
2022-08-26T02:01:43.892Z,22.18
2022-08-26T02:04:21.844Z,22.26
2022-08-26T02:06:48.802Z,22.24
2022-08-26T02:09:16.846Z,22.20
2022-08-26T02:11:44.687Z,22.25
2022-08-26T02:14:21.319Z,22.06
2022-08-26T02:16:50.290Z,22.02
2022-08-26T02:19:19.925Z,21.99
2022-08-26T02:21:50.983Z,21.96
2022-08-26T02:24:23.038Z,22.16
2022-08-26T02:26:50.218Z,21.86
2022-08-26T02:29:24.974Z,22.09
2022-08-26T02:31:52.797Z,21.96
2022-08-26T02:34:23.465Z,21.84
2022-08-26T02:36:50.895Z,21.97
2022-08-26T02:39:22.216Z,21.92
2022-08-26T02:41:49.197Z,22.15
2022-08-26T02:44:15.930Z,22.10
2022-08-26T02:46:46.821Z,22.20
2022-08-26T02:49:14.981Z,22.18
2022-08-26T02:51:41.602Z,22.19
2022-08-26T02:54:09.805Z,22.17
2022-08-26T02:56:36.470Z,21.99
2022-08-26T02:59:03.086Z,22.03
2022-08-26T03:01:32.857Z,22.11
2022-08-26T03:04:01.215Z,22.12
2022-08-26T03:06:27.925Z,22.08
2022-08-26T03:08:55.881Z,22.14
2022-08-26T03:11:22.749Z,22.22
2022-08-26T03:13:52.713Z,22.14
2022-08-26T03:16:20.720Z,22.29
2022-08-26T03:18:52.262Z,22.29
2022-08-26T03:21:19.512Z,22.15
2022-08-26T03:23:46.185Z,22.03
2022-08-26T03:26:14.387Z,22.15
2022-08-26T03:29:01.017Z,22.40
2022-08-26T03:31:29.279Z,22.28
2022-08-26T03:33:59.818Z,22.31
2022-08-26T03:36:26.960Z,22.17
2022-08-26T03:38:53.644Z,22.12
2022-08-26T03:41:21.368Z,22.17
2022-08-26T03:43:50.772Z,22.16
2022-08-26T03:46:18.664Z,22.22
2022-08-26T03:48:45.804Z,22.17
2022-08-26T03:51:18.265Z,22.21
2022-08-26T03:53:47.321Z,22.19
2022-08-26T03:56:15.322Z,22.15
2022-08-26T03:58:44.719Z,22.09
2022-08-26T04:01:23.467Z,22.02
2022-08-26T04:04:00.978Z,22.06
2022-08-26T04:06:39.033Z,22.03
2022-08-26T04:09:08.662Z,21.98
2022-08-26T04:11:38.384Z,22.02
2022-08-26T04:14:08.658Z,21.84
2022-08-26T04:16:35.399Z,21.95
2022-08-26T04:19:02.268Z,21.96
2022-08-26T04:21:29.005Z,21.98
2022-08-26T04:23:56.081Z,22.09
2022-08-26T04:26:25.301Z,22.05
2022-08-26T04:28:54.366Z,22.13
2022-08-26T04:31:21.102Z,22.17
2022-08-26T04:33:49.997Z,22.06
2022-08-26T04:36:17.688Z,22.10
2022-08-26T04:38:47.256Z,22.02
2022-08-26T04:41:15.278Z,22.10
2022-08-26T04:43:44.413Z,22.06
2022-08-26T04:46:12.843Z,22.13
2022-08-26T04:48:41.124Z,22.40
2022-08-26T04:51:09.184Z,22.42
2022-08-26T04:53:36.976Z,22.44
2022-08-26T04:56:04.069Z,22.31
2022-08-26T04:58:31.587Z,22.44
2022-08-26T05:00:58.566Z,22.76
2022-08-26T05:03:27.246Z,22.86
2022-08-26T05:05:57.780Z,23.08
2022-08-26T05:08:24.714Z,23.17
2022-08-26T05:10:54.745Z,23.15
2022-08-26T05:13:24.851Z,23.16
2022-08-26T05:15:51.719Z,23.42
2022-08-26T05:18:21.343Z,23.45
2022-08-26T05:20:53.919Z,23.46
2022-08-26T05:23:23.066Z,23.61
2022-08-26T05:25:54.614Z,23.58
2022-08-26T05:28:23.937Z,23.80
2022-08-26T05:30:51.285Z,23.96
2022-08-26T05:33:18.521Z,24.30
2022-08-26T05:35:45.757Z,24.33
2022-08-26T05:38:15.632Z,24.23
2022-08-26T05:40:44.790Z,24.26
2022-08-26T05:43:13.398Z,24.32
2022-08-26T05:45:46.000Z,24.45
2022-08-26T05:48:14.153Z,24.50
2022-08-26T05:50:43.353Z,24.53
2022-08-26T05:53:11.499Z,24.63
2022-08-26T05:55:44.562Z,24.68
2022-08-26T05:58:12.034Z,24.80
2022-08-26T06:00:39.489Z,25.02
2022-08-26T06:03:08.747Z,24.99
2022-08-26T06:05:39.557Z,24.93
2022-08-26T06:08:13.931Z,24.95
2022-08-26T06:11:05.795Z,25.14
2022-08-26T06:13:33.578Z,25.28
2022-08-26T06:16:05.275Z,25.27
2022-08-26T06:18:36.420Z,25.58
2022-08-26T06:21:28.091Z,25.68
2022-08-26T06:24:15.834Z,25.74
2022-08-26T06:26:50.461Z,26.06
2022-08-26T06:29:23.642Z,25.54
2022-08-26T06:31:52.414Z,25.72
2022-08-26T06:34:19.236Z,25.53
2022-08-26T06:36:47.235Z,25.94
2022-08-26T06:39:15.405Z,25.91
2022-08-26T06:41:44.918Z,25.80
2022-08-26T06:44:13.291Z,25.95
2022-08-26T06:46:41.074Z,25.84
2022-08-26T06:49:08.040Z,25.94
2022-08-26T06:51:37.182Z,26.03
2022-08-26T06:54:05.536Z,25.67
2022-08-26T06:56:40.216Z,25.84
2022-08-26T06:59:08.263Z,25.81
2022-08-26T07:01:38.515Z,25.80
2022-08-26T07:04:10.426Z,25.92
2022-08-26T07:06:40.302Z,25.89
2022-08-26T07:09:09.985Z,25.97
2022-08-26T07:11:38.448Z,26.02
2022-08-26T07:14:06.167Z,26.29
2022-08-26T07:16:32.918Z,26.29
2022-08-26T07:18:59.523Z,25.93
2022-08-26T07:21:28.302Z,26.05
2022-08-26T07:24:00.056Z,25.50
2022-08-26T07:26:30.199Z,26.32
2022-08-26T07:28:57.830Z,26.81
2022-08-26T07:31:28.817Z,26.45
2022-08-26T07:33:56.977Z,26.90
2022-08-26T07:36:24.493Z,27.22
2022-08-26T07:38:52.060Z,27.43
2022-08-26T07:41:20.385Z,27.80
2022-08-26T07:43:46.950Z,28.06
2022-08-26T07:46:27.143Z,28.23
2022-08-26T07:48:56.549Z,28.35
2022-08-26T07:51:23.327Z,28.62
2022-08-26T07:53:52.378Z,28.38
2022-08-26T07:56:20.319Z,28.70
2022-08-26T07:58:51.377Z,28.68
2022-08-26T08:01:23.789Z,29.21
2022-08-26T08:03:51.762Z,28.87
2022-08-26T08:06:19.790Z,29.48
2022-08-26T08:08:46.360Z,29.13
2022-08-26T08:11:14.182Z,28.92
2022-08-26T08:13:40.715Z,27.98
2022-08-26T08:16:12.534Z,27.30
2022-08-26T08:18:40.439Z,28.29
2022-08-26T08:21:23.914Z,28.30
2022-08-26T08:23:55.487Z,28.62
2022-08-26T08:26:23.447Z,29.17
2022-08-26T08:28:50.652Z,29.83
2022-08-26T08:31:54.376Z,29.91
2022-08-26T08:34:12.344Z,30.26
2022-08-26T08:36:38.832Z,29.99
2022-08-26T08:39:06.472Z,30.50
2022-08-26T08:41:45.267Z,31.03
2022-08-26T08:44:15.958Z,31.00
2022-08-26T08:46:42.722Z,31.04
2022-08-26T08:49:10.620Z,30.24
2022-08-26T08:51:48.133Z,29.30
2022-08-26T08:54:14.773Z,30.26
2022-08-26T08:56:54.974Z,30.14
2022-08-26T08:59:25.931Z,29.91
2022-08-26T09:01:53.948Z,29.91
2022-08-26T09:04:39.432Z,29.22
2022-08-26T09:07:12.154Z,29.32
2022-08-26T09:09:42.136Z,29.41
2022-08-26T09:12:20.666Z,30.31
2022-08-26T09:15:05.370Z,30.84
2022-08-26T09:17:57.418Z,31.07
2022-08-26T09:20:33.104Z,31.15
2022-08-26T09:22:59.598Z,31.85
2022-08-26T09:25:26.411Z,31.91
2022-08-26T09:27:53.716Z,31.58
2022-08-26T09:30:34.838Z,31.33
2022-08-26T09:33:01.419Z,30.68
2022-08-26T09:35:32.402Z,30.91
2022-08-26T09:37:59.516Z,30.76
2022-08-26T09:40:34.652Z,30.72
2022-08-26T09:43:13.749Z,30.72
2022-08-26T09:45:50.166Z,30.40
2022-08-26T09:48:44.054Z,30.62
2022-08-26T09:51:31.575Z,31.42
2022-08-26T09:54:00.057Z,30.87
2022-08-26T09:56:32.721Z,30.62
2022-08-26T09:59:00.636Z,30.49
2022-08-26T10:01:35.370Z,30.58
2022-08-26T10:04:14.715Z,30.08
2022-08-26T10:07:03.832Z,30.11
2022-08-26T10:09:35.003Z,29.91
2022-08-26T10:12:11.085Z,30.19
2022-08-26T10:14:48.533Z,30.18
2022-08-26T10:17:37.074Z,30.18
2022-08-26T10:20:23.364Z,30.13
2022-08-26T10:23:01.205Z,30.33
2022-08-26T10:25:43.055Z,30.56
2022-08-26T10:28:34.317Z,30.54
2022-08-26T10:31:05.342Z,30.43
2022-08-26T10:33:31.926Z,30.71
2022-08-26T10:36:01.105Z,31.12
2022-08-26T10:38:36.494Z,31.05
2022-08-26T10:41:09.786Z,30.99
2022-08-26T10:43:41.758Z,31.28
2022-08-26T10:46:18.441Z,31.54
2022-08-26T10:48:53.446Z,31.98
2022-08-26T10:51:25.144Z,32.07
2022-08-26T10:54:26.169Z,33.24
2022-08-26T10:57:01.521Z,34.23
2022-08-26T10:59:36.114Z,33.85
2022-08-26T11:02:33.041Z,33.94
2022-08-26T11:05:03.226Z,33.12
2022-08-26T11:07:45.450Z,33.17
2022-08-26T11:10:21.269Z,33.18
2022-08-26T11:12:49.416Z,32.74
2022-08-26T11:15:24.636Z,32.63
2022-08-26T11:17:51.416Z,33.26
2022-08-26T11:20:46.049Z,34.20
2022-08-26T11:23:13.695Z,34.67
2022-08-26T11:26:01.577Z,33.91
2022-08-26T11:28:35.572Z,33.13
2022-08-26T11:31:03.302Z,31.98
2022-08-26T11:33:43.924Z,32.01
2022-08-26T11:36:12.525Z,31.82
2022-08-26T11:38:42.743Z,31.08
2022-08-26T11:41:12.248Z,30.60
2022-08-26T11:43:39.710Z,31.18
2022-08-26T11:46:10.533Z,31.23
2022-08-26T11:48:39.982Z,31.31
2022-08-26T11:51:20.330Z,30.14
2022-08-26T11:53:47.196Z,30.54
2022-08-26T11:56:33.248Z,30.32
2022-08-26T11:59:01.484Z,29.91
2022-08-26T12:01:38.280Z,30.32
2022-08-26T12:04:07.542Z,30.32
2022-08-26T12:06:43.410Z,30.00
2022-08-26T12:09:20.435Z,30.78
2022-08-26T12:11:47.021Z,29.95
2022-08-26T12:14:24.313Z,29.42
2022-08-26T12:16:51.879Z,29.71
2022-08-26T12:19:29.064Z,31.29
2022-08-26T12:22:06.608Z,31.52
2022-08-26T12:24:33.188Z,31.75
2022-08-26T12:27:22.332Z,32.35
2022-08-26T12:30:04.292Z,31.82
2022-08-26T12:32:35.024Z,31.39
2022-08-26T12:37:35.458Z,31.01
2022-08-26T12:40:27.038Z,30.42
2022-08-26T12:42:53.649Z,28.96
2022-08-26T12:45:29.038Z,28.11
2022-08-26T12:47:59.410Z,26.83
2022-08-26T12:50:31.881Z,25.63
2022-08-26T12:53:00.527Z,25.89
2022-08-26T12:55:42.912Z,24.25
2022-08-26T12:58:15.493Z,22.03
2022-08-26T13:00:45.885Z,21.14
2022-08-26T13:03:37.283Z,20.79
2022-08-26T13:06:30.001Z,20.04
2022-08-26T13:09:25.571Z,20.20
2022-08-26T13:11:54.999Z,20.97
2022-08-26T13:14:24.900Z,20.73
2022-08-26T13:16:52.762Z,20.42
2022-08-26T13:19:22.078Z,21.06
2022-08-26T13:21:52.873Z,21.27
2022-08-26T13:24:34.518Z,21.08
2022-08-26T13:27:01.661Z,20.80
2022-08-26T13:29:28.269Z,20.86
2022-08-26T13:31:55.895Z,21.20
2022-08-26T13:34:24.354Z,21.19
2022-08-26T13:36:54.051Z,21.54
2022-08-26T13:39:21.528Z,21.78
2022-08-26T13:41:48.248Z,22.61
2022-08-26T13:44:14.933Z,23.00
2022-08-26T13:46:41.890Z,23.81
2022-08-26T13:49:09.190Z,24.42
2022-08-26T13:51:36.360Z,25.19
2022-08-26T13:54:02.959Z,25.15
2022-08-26T13:56:29.883Z,25.11
2022-08-26T13:58:57.578Z,25.48
2022-08-26T14:01:24.365Z,25.47
2022-08-26T14:03:51.141Z,25.39
2022-08-26T14:06:18.226Z,25.94
2022-08-26T14:08:45.369Z,26.28
2022-08-26T14:11:12.051Z,26.62
2022-08-26T14:13:39.281Z,26.31
2022-08-26T14:16:09.970Z,26.28
2022-08-26T14:18:41.884Z,26.36
2022-08-26T14:21:09.126Z,26.22
2022-08-26T14:23:35.581Z,26.21
2022-08-26T14:26:04.007Z,26.16
2022-08-26T14:28:30.490Z,26.47
2022-08-26T14:30:58.283Z,26.76
2022-08-26T14:33:27.749Z,26.32
2022-08-26T15:11:40.889Z,27.32
2022-08-26T17:04:49.254Z,22.87
2022-08-26T17:07:16.962Z,22.94
2022-08-26T17:09:43.491Z,22.91
2022-08-26T17:12:10.035Z,23.17
2022-08-26T17:14:37.011Z,23.33
2022-08-26T17:17:04.072Z,22.89
2022-08-26T17:19:30.583Z,22.95
2022-08-26T17:22:10.722Z,22.95
2022-08-26T17:24:37.979Z,22.03
2022-08-26T17:27:04.864Z,21.69
2022-08-26T17:29:31.443Z,21.66
2022-08-26T17:31:57.934Z,21.77
2022-08-26T17:34:24.576Z,21.98
2022-08-26T17:36:51.914Z,22.15
2022-08-26T17:39:20.814Z,22.20
2022-08-26T17:41:47.322Z,22.70
2022-08-26T17:44:15.363Z,22.75
2022-08-26T17:46:42.037Z,22.73
2022-08-26T17:49:08.715Z,22.70
2022-08-26T17:51:35.302Z,22.94
2022-08-26T17:54:01.778Z,22.86
2022-08-26T17:56:29.366Z,22.70
2022-08-26T17:59:02.325Z,22.59
2022-08-26T18:01:30.795Z,22.82
2022-08-26T18:04:00.390Z,23.05
2022-08-26T18:06:28.446Z,23.10
2022-08-26T18:08:55.467Z,23.18
2022-08-26T18:11:25.498Z,23.13
2022-08-26T18:13:52.121Z,23.17
2022-08-26T18:16:19.730Z,23.12
2022-08-26T18:18:47.699Z,23.17
2022-08-26T18:21:23.030Z,23.29
2022-08-26T18:23:50.531Z,23.30
2022-08-26T18:26:19.501Z,23.35
2022-08-26T18:28:46.172Z,23.24
2022-08-26T18:31:12.812Z,23.40
2022-08-26T18:33:39.349Z,23.34
2022-08-26T18:36:06.058Z,23.24
2022-08-26T18:38:32.836Z,23.18
2022-08-26T18:40:59.415Z,23.11
2022-08-26T18:43:25.955Z,23.22
2022-08-26T18:46:02.147Z,23.25
2022-08-26T18:48:28.679Z,23.25
2022-08-26T18:50:55.422Z,23.13
2022-08-26T18:53:21.989Z,23.03
2022-08-26T18:55:48.504Z,23.10
2022-08-26T18:58:16.411Z,22.73
2022-08-26T19:00:42.971Z,22.36
2022-08-26T19:03:19.102Z,22.42
2022-08-26T19:05:45.853Z,22.24
2022-08-26T19:08:12.544Z,21.32
2022-08-26T19:10:39.620Z,21.60
2022-08-26T19:13:07.362Z,21.84
2022-08-26T19:15:44.062Z,21.56
2022-08-26T19:18:12.289Z,21.68
2022-08-26T19:20:45.970Z,21.69
2022-08-26T19:23:30.452Z,21.75
2022-08-26T19:25:58.407Z,21.74
2022-08-26T19:28:24.967Z,21.90
2022-08-26T19:30:53.340Z,21.80
2022-08-26T19:33:20.095Z,21.65
2022-08-26T19:35:46.627Z,21.76
2022-08-26T19:38:13.759Z,21.70
2022-08-26T19:40:40.625Z,21.70
2022-08-26T19:43:07.323Z,21.74
2022-08-26T19:45:34.712Z,21.96
2022-08-26T19:48:01.731Z,21.81
2022-08-26T19:50:30.255Z,21.96
2022-08-26T19:52:56.788Z,21.93
2022-08-26T19:55:23.865Z,22.06
2022-08-26T19:57:52.294Z,21.77
2022-08-26T20:00:22.189Z,22.03
2022-08-26T20:02:48.824Z,21.75
2022-08-26T20:05:16.459Z,21.74
2022-08-26T20:07:43.042Z,21.77
2022-08-26T20:10:12.976Z,21.69
2022-08-26T20:12:41.681Z,21.70
2022-08-26T20:15:10.721Z,21.49
2022-08-26T20:17:37.483Z,21.74
2022-08-26T20:20:44.702Z,22.06
2022-08-26T20:23:11.251Z,21.97
2022-08-26T20:25:38.038Z,21.81
2022-08-26T20:28:06.294Z,21.99
2022-08-26T20:30:32.975Z,21.98
2022-08-26T20:32:59.509Z,21.86
2022-08-26T20:35:26.257Z,21.71
2022-08-26T20:37:52.785Z,21.73
2022-08-26T20:40:19.429Z,21.66
2022-08-26T20:42:46.122Z,21.96
2022-08-26T20:45:12.745Z,21.74
2022-08-26T20:47:39.510Z,21.86
2022-08-26T20:50:08.163Z,21.96
2022-08-26T20:52:35.900Z,22.08
2022-08-26T20:55:03.013Z,21.93
2022-08-26T20:57:30.148Z,22.00
2022-08-26T20:59:56.714Z,21.83
2022-08-26T21:02:24.672Z,21.85
2022-08-26T21:04:51.209Z,21.98
2022-08-26T21:07:17.889Z,21.83
2022-08-26T21:09:44.439Z,21.69
2022-08-26T21:12:10.950Z,21.36
2022-08-26T21:14:40.865Z,21.53
2022-08-26T21:20:55.571Z,21.46
2022-08-26T21:23:24.505Z,21.44
2022-08-26T21:25:53.644Z,21.60
2022-08-26T21:28:20.616Z,21.71
2022-08-26T21:30:48.251Z,21.69
2022-08-26T21:33:14.741Z,21.50
2022-08-26T21:35:41.267Z,21.58
2022-08-26T21:38:07.858Z,21.65
2022-08-26T21:40:34.489Z,21.74
2022-08-26T21:43:01.014Z,21.62
2022-08-26T21:45:27.864Z,21.57
2022-08-26T21:47:54.599Z,21.43
2022-08-26T21:50:21.728Z,21.23
2022-08-26T21:52:48.317Z,21.66
2022-08-26T21:55:14.975Z,21.62
2022-08-26T21:57:41.527Z,21.40
2022-08-26T22:00:11.901Z,21.43
2022-08-26T22:02:38.591Z,21.20
2022-08-26T22:05:05.648Z,21.54
2022-08-26T22:07:32.554Z,21.51
2022-08-26T22:09:59.227Z,21.08
2022-08-26T22:12:25.785Z,21.07
2022-08-26T22:14:52.719Z,21.00
2022-08-26T22:17:19.257Z,21.32
2022-08-26T22:19:46.719Z,21.19
2022-08-26T22:22:14.909Z,21.31
2022-08-26T22:24:43.244Z,21.09
2022-08-26T22:27:11.934Z,21.14
2022-08-26T22:29:38.716Z,21.10
2022-08-26T22:32:05.450Z,21.07
2022-08-26T22:34:33.353Z,20.96
2022-08-26T22:36:59.894Z,21.10
2022-08-26T22:39:26.733Z,21.05
2022-08-26T22:41:54.071Z,21.26
2022-08-26T22:44:21.421Z,21.45
2022-08-26T22:46:48.890Z,21.20
2022-08-26T22:49:16.495Z,21.13
2022-08-26T22:51:44.526Z,21.44
2022-08-26T22:54:11.098Z,21.27
2022-08-26T22:56:38.485Z,20.96
2022-08-26T22:59:07.781Z,21.08
2022-08-26T23:01:47.289Z,21.12
2022-08-26T23:04:14.231Z,21.07
2022-08-26T23:06:47.357Z,20.91
2022-08-26T23:09:17.105Z,21.26
2022-08-26T23:11:46.544Z,21.02
2022-08-26T23:14:13.955Z,21.10
2022-08-26T23:16:42.226Z,21.11
2022-08-26T23:19:12.037Z,20.85
2022-08-26T23:21:40.129Z,21.14
2022-08-26T23:24:08.539Z,21.14
2022-08-26T23:26:36.415Z,21.19
2022-08-26T23:29:04.919Z,21.29
2022-08-26T23:31:31.582Z,21.11
2022-08-26T23:34:16.795Z,21.05
2022-08-26T23:36:44.131Z,21.35
2022-08-26T23:39:14.104Z,21.17
2022-08-26T23:41:40.941Z,21.39
2022-08-26T23:44:07.518Z,21.16
2022-08-26T23:46:34.643Z,21.04
2022-08-26T23:49:01.721Z,21.42
2022-08-26T23:51:46.755Z,21.37
2022-08-26T23:54:14.826Z,21.25
2022-08-26T23:56:41.731Z,21.14
2022-08-26T23:59:08.410Z,21.35
